sensor_id;sensor_type;location;lat;lon;timestamp;P1;durP1;ratioP1;P2;durP2;ratioP2
353;SDS011;165;53.592;10.044;2023-02-15T00:00:33;71.13;;;37.07;;
353;SDS011;165;53.592;10.044;2023-02-15T00:02:58;63.33;;;38.30;;
353;SDS011;165;53.592;10.044;2023-02-15T00:05:24;75.20;;;39.57;;
353;SDS011;165;53.592;10.044;2023-02-15T00:07:49;79.93;;;40.00;;
353;SDS011;165;53.592;10.044;2023-02-15T00:10:14;91.60;;;38.63;;
353;SDS011;165;53.592;10.044;2023-02-15T00:12:40;70.87;;;36.17;;
353;SDS011;165;53.592;10.044;2023-02-15T00:15:05;73.00;;;39.53;;
353;SDS011;165;53.592;10.044;2023-02-15T00:17:31;74.80;;;38.50;;
353;SDS011;165;53.592;10.044;2023-02-15T00:19:57;74.53;;;39.47;;
353;SDS011;165;53.592;10.044;2023-02-15T00:22:22;83.83;;;40.70;;
353;SDS011;165;53.592;10.044;2023-02-15T00:24:48;89.27;;;42.43;;
353;SDS011;165;53.592;10.044;2023-02-15T00:27:13;78.10;;;39.67;;
353;SDS011;165;53.592;10.044;2023-02-15T00:29:39;81.37;;;40.23;;
353;SDS011;165;53.592;10.044;2023-02-15T00:32:04;76.90;;;35.00;;
353;SDS011;165;53.592;10.044;2023-02-15T00:34:30;76.97;;;39.40;;
353;SDS011;165;53.592;10.044;2023-02-15T00:36:55;72.57;;;37.67;;
353;SDS011;165;53.592;10.044;2023-02-15T00:39:21;89.77;;;36.40;;
353;SDS011;165;53.592;10.044;2023-02-15T00:41:46;73.47;;;37.50;;
353;SDS011;165;53.592;10.044;2023-02-15T00:44:12;85.60;;;37.67;;
353;SDS011;165;53.592;10.044;2023-02-15T00:46:38;80.93;;;36.70;;
353;SDS011;165;53.592;10.044;2023-02-15T00:49:03;76.03;;;35.87;;
353;SDS011;165;53.592;10.044;2023-02-15T00:51:29;74.03;;;36.37;;
353;SDS011;165;53.592;10.044;2023-02-15T00:53:55;85.00;;;38.27;;
353;SDS011;165;53.592;10.044;2023-02-15T00:56:21;85.93;;;35.77;;
353;SDS011;165;53.592;10.044;2023-02-15T00:58:46;84.37;;;35.50;;
353;SDS011;165;53.592;10.044;2023-02-15T01:01:13;84.53;;;37.60;;
353;SDS011;165;53.592;10.044;2023-02-15T01:03:40;78.23;;;36.03;;
353;SDS011;165;53.592;10.044;2023-02-15T01:06:06;78.87;;;36.43;;
353;SDS011;165;53.592;10.044;2023-02-15T01:08:31;74.23;;;38.50;;
353;SDS011;165;53.592;10.044;2023-02-15T01:10:56;76.33;;;36.47;;
353;SDS011;165;53.592;10.044;2023-02-15T01:13:27;76.90;;;38.87;;
353;SDS011;165;53.592;10.044;2023-02-15T01:15:53;79.70;;;37.47;;
353;SDS011;165;53.592;10.044;2023-02-15T01:18:19;84.67;;;37.90;;
353;SDS011;165;53.592;10.044;2023-02-15T01:20:45;84.87;;;39.33;;
353;SDS011;165;53.592;10.044;2023-02-15T01:23:10;72.43;;;37.47;;
353;SDS011;165;53.592;10.044;2023-02-15T01:25:35;85.37;;;35.00;;
353;SDS011;165;53.592;10.044;2023-02-15T01:28:01;74.47;;;37.73;;
353;SDS011;165;53.592;10.044;2023-02-15T01:30:27;75.77;;;35.17;;
353;SDS011;165;53.592;10.044;2023-02-15T01:32:53;86.63;;;39.77;;
353;SDS011;165;53.592;10.044;2023-02-15T01:35:18;81.00;;;38.40;;
353;SDS011;165;53.592;10.044;2023-02-15T01:37:44;81.77;;;38.87;;
353;SDS011;165;53.592;10.044;2023-02-15T01:40:13;86.73;;;39.87;;
353;SDS011;165;53.592;10.044;2023-02-15T01:42:41;83.20;;;39.87;;
353;SDS011;165;53.592;10.044;2023-02-15T01:45:24;75.70;;;39.10;;
353;SDS011;165;53.592;10.044;2023-02-15T01:48:05;78.00;;;37.07;;
353;SDS011;165;53.592;10.044;2023-02-15T01:50:37;71.40;;;37.03;;
353;SDS011;165;53.592;10.044;2023-02-15T01:53:17;77.00;;;39.23;;
353;SDS011;165;53.592;10.044;2023-02-15T01:55:59;86.93;;;37.03;;
353;SDS011;165;53.592;10.044;2023-02-15T01:58:27;66.00;;;35.37;;
353;SDS011;165;53.592;10.044;2023-02-15T02:00:53;77.50;;;37.07;;
353;SDS011;165;53.592;10.044;2023-02-15T02:03:24;63.17;;;32.07;;
353;SDS011;165;53.592;10.044;2023-02-15T02:05:58;70.97;;;36.73;;
353;SDS011;165;53.592;10.044;2023-02-15T02:08:24;69.03;;;32.17;;
353;SDS011;165;53.592;10.044;2023-02-15T02:10:49;76.80;;;36.03;;
353;SDS011;165;53.592;10.044;2023-02-15T02:13:15;74.23;;;35.17;;
353;SDS011;165;53.592;10.044;2023-02-15T02:15:44;66.97;;;33.77;;
353;SDS011;165;53.592;10.044;2023-02-15T02:18:32;71.47;;;35.90;;
353;SDS011;165;53.592;10.044;2023-02-15T02:35:48;82.77;;;35.70;;
353;SDS011;165;53.592;10.044;2023-02-15T02:38:38;90.27;;;35.60;;
353;SDS011;165;53.592;10.044;2023-02-15T02:41:26;84.23;;;39.33;;
353;SDS011;165;53.592;10.044;2023-02-15T02:44:11;68.27;;;36.37;;
353;SDS011;165;53.592;10.044;2023-02-15T02:46:50;78.83;;;37.77;;
353;SDS011;165;53.592;10.044;2023-02-15T02:49:35;72.20;;;38.03;;
353;SDS011;165;53.592;10.044;2023-02-15T02:52:03;77.73;;;37.20;;
353;SDS011;165;53.592;10.044;2023-02-15T02:54:32;70.17;;;37.00;;
353;SDS011;165;53.592;10.044;2023-02-15T02:57:01;66.57;;;35.10;;
353;SDS011;165;53.592;10.044;2023-02-15T02:59:36;110.73;;;36.70;;
353;SDS011;165;53.592;10.044;2023-02-15T03:02:16;70.50;;;36.50;;
353;SDS011;165;53.592;10.044;2023-02-15T03:04:47;68.23;;;36.07;;
353;SDS011;165;53.592;10.044;2023-02-15T03:07:19;69.53;;;35.60;;
353;SDS011;165;53.592;10.044;2023-02-15T03:09:49;64.20;;;33.03;;
353;SDS011;165;53.592;10.044;2023-02-15T03:12:17;82.87;;;39.07;;
353;SDS011;165;53.592;10.044;2023-02-15T03:15:01;62.53;;;35.30;;
353;SDS011;165;53.592;10.044;2023-02-15T03:17:31;77.50;;;33.50;;
353;SDS011;165;53.592;10.044;2023-02-15T03:19:58;75.27;;;37.40;;
353;SDS011;165;53.592;10.044;2023-02-15T03:22:30;67.70;;;34.07;;
353;SDS011;165;53.592;10.044;2023-02-15T03:27:39;59.63;;;33.47;;
353;SDS011;165;53.592;10.044;2023-02-15T03:30:09;79.60;;;34.87;;
353;SDS011;165;53.592;10.044;2023-02-15T03:32:36;57.70;;;34.07;;
353;SDS011;165;53.592;10.044;2023-02-15T03:35:03;68.30;;;33.97;;
353;SDS011;165;53.592;10.044;2023-02-15T03:37:50;66.03;;;35.70;;
353;SDS011;165;53.592;10.044;2023-02-15T03:40:22;61.23;;;34.60;;
353;SDS011;165;53.592;10.044;2023-02-15T03:42:55;75.17;;;35.23;;
353;SDS011;165;53.592;10.044;2023-02-15T03:45:27;74.50;;;33.20;;
353;SDS011;165;53.592;10.044;2023-02-15T03:47:56;78.40;;;37.40;;
353;SDS011;165;53.592;10.044;2023-02-15T03:50:30;64.43;;;36.57;;
353;SDS011;165;53.592;10.044;2023-02-15T03:52:58;62.97;;;34.53;;
353;SDS011;165;53.592;10.044;2023-02-15T03:55:27;66.03;;;34.00;;
353;SDS011;165;53.592;10.044;2023-02-15T03:57:53;64.77;;;31.43;;
353;SDS011;165;53.592;10.044;2023-02-15T04:00:22;59.47;;;30.70;;
353;SDS011;165;53.592;10.044;2023-02-15T04:05:37;63.47;;;32.07;;
353;SDS011;165;53.592;10.044;2023-02-15T04:08:03;64.67;;;33.50;;
353;SDS011;165;53.592;10.044;2023-02-15T04:10:29;61.93;;;30.80;;
353;SDS011;165;53.592;10.044;2023-02-15T04:12:54;67.23;;;36.80;;
353;SDS011;165;53.592;10.044;2023-02-15T04:15:21;69.97;;;35.47;;
353;SDS011;165;53.592;10.044;2023-02-15T04:17:46;74.07;;;33.70;;
353;SDS011;165;53.592;10.044;2023-02-15T04:20:12;65.77;;;34.87;;
353;SDS011;165;53.592;10.044;2023-02-15T04:22:37;65.30;;;34.27;;
353;SDS011;165;53.592;10.044;2023-02-15T04:25:03;62.67;;;32.97;;
353;SDS011;165;53.592;10.044;2023-02-15T04:27:28;59.47;;;32.47;;
353;SDS011;165;53.592;10.044;2023-02-15T04:29:54;66.77;;;32.10;;
353;SDS011;165;53.592;10.044;2023-02-15T04:32:19;59.20;;;31.30;;
353;SDS011;165;53.592;10.044;2023-02-15T04:34:45;79.47;;;35.03;;
353;SDS011;165;53.592;10.044;2023-02-15T04:37:10;65.50;;;32.20;;
353;SDS011;165;53.592;10.044;2023-02-15T04:39:36;55.50;;;30.67;;
353;SDS011;165;53.592;10.044;2023-02-15T04:42:01;64.03;;;29.83;;
353;SDS011;165;53.592;10.044;2023-02-15T04:44:27;77.77;;;31.17;;
353;SDS011;165;53.592;10.044;2023-02-15T04:46:52;55.97;;;29.93;;
353;SDS011;165;53.592;10.044;2023-02-15T04:49:18;58.73;;;32.17;;
353;SDS011;165;53.592;10.044;2023-02-15T04:51:43;62.40;;;33.20;;
353;SDS011;165;53.592;10.044;2023-02-15T04:54:09;62.20;;;33.03;;
353;SDS011;165;53.592;10.044;2023-02-15T04:56:34;64.00;;;33.20;;
353;SDS011;165;53.592;10.044;2023-02-15T04:59:00;58.87;;;31.50;;
353;SDS011;165;53.592;10.044;2023-02-15T05:01:25;64.40;;;34.00;;
353;SDS011;165;53.592;10.044;2023-02-15T05:03:51;58.10;;;29.77;;
353;SDS011;165;53.592;10.044;2023-02-15T05:06:16;59.10;;;32.23;;
353;SDS011;165;53.592;10.044;2023-02-15T05:08:42;52.93;;;29.27;;
353;SDS011;165;53.592;10.044;2023-02-15T05:11:07;54.10;;;30.60;;
353;SDS011;165;53.592;10.044;2023-02-15T05:13:33;54.33;;;31.27;;
353;SDS011;165;53.592;10.044;2023-02-15T05:15:58;51.57;;;29.30;;
353;SDS011;165;53.592;10.044;2023-02-15T05:18:24;54.07;;;29.60;;
353;SDS011;165;53.592;10.044;2023-02-15T05:20:49;56.63;;;32.33;;
353;SDS011;165;53.592;10.044;2023-02-15T05:23:15;52.07;;;29.10;;
353;SDS011;165;53.592;10.044;2023-02-15T05:25:40;57.53;;;31.17;;
353;SDS011;165;53.592;10.044;2023-02-15T05:28:08;60.07;;;31.30;;
353;SDS011;165;53.592;10.044;2023-02-15T05:30:36;58.90;;;31.17;;
353;SDS011;165;53.592;10.044;2023-02-15T05:33:02;66.43;;;28.93;;
353;SDS011;165;53.592;10.044;2023-02-15T05:35:27;58.93;;;31.87;;
353;SDS011;165;53.592;10.044;2023-02-15T05:37:53;65.70;;;33.50;;
353;SDS011;165;53.592;10.044;2023-02-15T05:40:18;63.37;;;30.50;;
353;SDS011;165;53.592;10.044;2023-02-15T05:42:44;55.37;;;31.17;;
353;SDS011;165;53.592;10.044;2023-02-15T05:45:09;52.90;;;30.63;;
353;SDS011;165;53.592;10.044;2023-02-15T05:47:35;65.43;;;30.80;;
353;SDS011;165;53.592;10.044;2023-02-15T05:50:00;79.33;;;32.40;;
353;SDS011;165;53.592;10.044;2023-02-15T05:52:26;60.70;;;33.57;;
353;SDS011;165;53.592;10.044;2023-02-15T05:54:51;54.90;;;29.57;;
353;SDS011;165;53.592;10.044;2023-02-15T05:57:16;58.30;;;29.00;;
353;SDS011;165;53.592;10.044;2023-02-15T05:59:42;84.37;;;30.70;;
353;SDS011;165;53.592;10.044;2023-02-15T06:02:08;57.37;;;27.87;;
353;SDS011;165;53.592;10.044;2023-02-15T06:04:33;54.97;;;30.50;;
353;SDS011;165;53.592;10.044;2023-02-15T06:06:58;55.93;;;29.00;;
353;SDS011;165;53.592;10.044;2023-02-15T06:09:24;58.03;;;28.20;;
353;SDS011;165;53.592;10.044;2023-02-15T06:11:50;69.00;;;30.77;;
353;SDS011;165;53.592;10.044;2023-02-15T06:14:15;50.20;;;28.93;;
353;SDS011;165;53.592;10.044;2023-02-15T06:16:41;53.20;;;29.67;;
353;SDS011;165;53.592;10.044;2023-02-15T06:19:06;59.57;;;29.90;;
353;SDS011;165;53.592;10.044;2023-02-15T06:21:32;55.00;;;31.20;;
353;SDS011;165;53.592;10.044;2023-02-15T06:23:57;51.70;;;30.33;;
353;SDS011;165;53.592;10.044;2023-02-15T06:26:23;50.17;;;27.80;;
353;SDS011;165;53.592;10.044;2023-02-15T06:28:49;63.33;;;29.43;;
353;SDS011;165;53.592;10.044;2023-02-15T06:31:14;54.10;;;31.20;;
353;SDS011;165;53.592;10.044;2023-02-15T06:33:40;55.77;;;31.10;;
353;SDS011;165;53.592;10.044;2023-02-15T06:36:05;61.77;;;29.27;;
353;SDS011;165;53.592;10.044;2023-02-15T06:38:31;55.87;;;31.17;;
353;SDS011;165;53.592;10.044;2023-02-15T06:40:56;53.07;;;28.40;;
353;SDS011;165;53.592;10.044;2023-02-15T06:43:22;61.30;;;29.10;;
353;SDS011;165;53.592;10.044;2023-02-15T06:45:47;55.50;;;28.30;;
353;SDS011;165;53.592;10.044;2023-02-15T06:48:13;70.40;;;28.27;;
353;SDS011;165;53.592;10.044;2023-02-15T06:50:38;52.73;;;27.90;;
353;SDS011;165;53.592;10.044;2023-02-15T06:53:04;44.80;;;23.93;;
353;SDS011;165;53.592;10.044;2023-02-15T06:55:29;52.33;;;29.77;;
353;SDS011;165;53.592;10.044;2023-02-15T06:57:55;74.60;;;35.70;;
353;SDS011;165;53.592;10.044;2023-02-15T07:00:21;53.67;;;31.47;;
353;SDS011;165;53.592;10.044;2023-02-15T07:02:46;58.27;;;29.57;;
353;SDS011;165;53.592;10.044;2023-02-15T07:05:12;56.57;;;29.60;;
353;SDS011;165;53.592;10.044;2023-02-15T07:07:37;53.40;;;29.70;;
353;SDS011;165;53.592;10.044;2023-02-15T07:10:03;51.83;;;29.63;;
353;SDS011;165;53.592;10.044;2023-02-15T07:12:29;57.07;;;31.47;;
353;SDS011;165;53.592;10.044;2023-02-15T07:14:54;60.03;;;28.60;;
353;SDS011;165;53.592;10.044;2023-02-15T07:17:20;60.00;;;31.30;;
353;SDS011;165;53.592;10.044;2023-02-15T07:19:45;61.00;;;30.57;;
353;SDS011;165;53.592;10.044;2023-02-15T07:22:12;56.27;;;28.43;;
353;SDS011;165;53.592;10.044;2023-02-15T07:24:37;50.10;;;30.30;;
353;SDS011;165;53.592;10.044;2023-02-15T07:27:03;58.80;;;31.87;;
353;SDS011;165;53.592;10.044;2023-02-15T07:29:28;54.00;;;28.93;;
353;SDS011;165;53.592;10.044;2023-02-15T07:31:53;57.17;;;32.50;;
353;SDS011;165;53.592;10.044;2023-02-15T07:34:20;63.50;;;30.47;;
353;SDS011;165;53.592;10.044;2023-02-15T07:36:45;54.40;;;30.17;;
353;SDS011;165;53.592;10.044;2023-02-15T07:39:10;55.17;;;29.17;;
353;SDS011;165;53.592;10.044;2023-02-15T07:41:36;48.70;;;27.37;;
353;SDS011;165;53.592;10.044;2023-02-15T07:44:01;60.60;;;28.57;;
353;SDS011;165;53.592;10.044;2023-02-15T07:46:27;58.07;;;29.67;;
353;SDS011;165;53.592;10.044;2023-02-15T07:48:52;49.13;;;26.93;;
353;SDS011;165;53.592;10.044;2023-02-15T07:51:18;60.27;;;29.80;;
353;SDS011;165;53.592;10.044;2023-02-15T07:53:44;54.97;;;30.47;;
353;SDS011;165;53.592;10.044;2023-02-15T07:56:10;57.13;;;28.63;;
353;SDS011;165;53.592;10.044;2023-02-15T07:58:37;62.67;;;30.17;;
353;SDS011;165;53.592;10.044;2023-02-15T08:01:03;53.20;;;30.40;;
353;SDS011;165;53.592;10.044;2023-02-15T08:03:28;50.00;;;28.43;;
353;SDS011;165;53.592;10.044;2023-02-15T08:05:58;49.53;;;26.80;;
353;SDS011;165;53.592;10.044;2023-02-15T08:08:24;50.07;;;28.57;;
353;SDS011;165;53.592;10.044;2023-02-15T08:10:51;58.17;;;28.93;;
353;SDS011;165;53.592;10.044;2023-02-15T08:13:16;52.33;;;29.73;;
353;SDS011;165;53.592;10.044;2023-02-15T08:15:51;52.73;;;32.10;;
353;SDS011;165;53.592;10.044;2023-02-15T08:18:16;53.20;;;29.50;;
353;SDS011;165;53.592;10.044;2023-02-15T08:20:42;44.93;;;28.90;;
353;SDS011;165;53.592;10.044;2023-02-15T08:23:07;57.93;;;30.87;;
353;SDS011;165;53.592;10.044;2023-02-15T08:25:53;50.67;;;28.50;;
353;SDS011;165;53.592;10.044;2023-02-15T08:28:18;60.63;;;30.97;;
353;SDS011;165;53.592;10.044;2023-02-15T08:30:44;48.00;;;24.40;;
353;SDS011;165;53.592;10.044;2023-02-15T08:33:09;42.47;;;24.53;;
353;SDS011;165;53.592;10.044;2023-02-15T08:38:38;51.67;;;26.73;;
353;SDS011;165;53.592;10.044;2023-02-15T08:41:10;62.73;;;29.40;;
353;SDS011;165;53.592;10.044;2023-02-15T08:43:43;52.43;;;28.90;;
353;SDS011;165;53.592;10.044;2023-02-15T08:46:10;52.23;;;28.40;;
353;SDS011;165;53.592;10.044;2023-02-15T08:48:36;55.60;;;29.20;;
353;SDS011;165;53.592;10.044;2023-02-15T08:51:06;53.77;;;27.30;;
353;SDS011;165;53.592;10.044;2023-02-15T08:53:33;46.90;;;26.43;;
353;SDS011;165;53.592;10.044;2023-02-15T08:55:58;49.47;;;27.33;;
353;SDS011;165;53.592;10.044;2023-02-15T08:58:24;47.27;;;28.53;;
353;SDS011;165;53.592;10.044;2023-02-15T09:00:50;48.60;;;29.37;;
353;SDS011;165;53.592;10.044;2023-02-15T09:03:16;50.30;;;27.20;;
353;SDS011;165;53.592;10.044;2023-02-15T09:05:42;63.30;;;29.77;;
353;SDS011;165;53.592;10.044;2023-02-15T09:08:07;46.10;;;27.30;;
353;SDS011;165;53.592;10.044;2023-02-15T09:10:33;53.80;;;28.37;;
353;SDS011;165;53.592;10.044;2023-02-15T09:12:58;47.90;;;25.30;;
353;SDS011;165;53.592;10.044;2023-02-15T09:15:24;48.57;;;26.43;;
353;SDS011;165;53.592;10.044;2023-02-15T09:17:49;50.50;;;27.83;;
353;SDS011;165;53.592;10.044;2023-02-15T09:20:18;54.63;;;28.93;;
353;SDS011;165;53.592;10.044;2023-02-15T09:23:07;47.37;;;27.30;;
353;SDS011;165;53.592;10.044;2023-02-15T09:25:33;51.33;;;24.93;;
353;SDS011;165;53.592;10.044;2023-02-15T09:28:03;52.20;;;26.43;;
353;SDS011;165;53.592;10.044;2023-02-15T09:30:29;51.50;;;26.60;;
353;SDS011;165;53.592;10.044;2023-02-15T09:32:55;44.10;;;25.17;;
